createdAt,value
2023-09-10T00:01:04.969Z,24.62
2023-09-10T00:03:33.623Z,24.59
2023-09-10T00:06:02.158Z,24.56
2023-09-10T00:08:29.284Z,24.55
2023-09-10T00:10:57.835Z,24.49
2023-09-10T00:13:26.214Z,24.47
2023-09-10T00:15:54.162Z,24.44
2023-09-10T00:18:21.334Z,24.44
2023-09-10T00:20:50.269Z,24.41
2023-09-10T00:23:17.267Z,24.38
2023-09-10T00:25:44.359Z,24.34
2023-09-10T00:28:11.290Z,24.32
2023-09-10T00:30:38.164Z,24.30
2023-09-10T00:33:05.413Z,24.28
2023-09-10T00:35:32.298Z,24.27
2023-09-10T00:38:01.697Z,24.24
2023-09-10T00:40:29.406Z,24.23
2023-09-10T00:42:56.231Z,24.19
2023-09-10T00:45:23.041Z,24.18
2023-09-10T00:47:49.918Z,24.17
2023-09-10T00:50:18.035Z,24.15
2023-09-10T00:52:50.475Z,24.13
2023-09-10T00:55:18.179Z,24.10
2023-09-10T00:57:45.155Z,24.09
2023-09-10T01:00:13.536Z,24.07
2023-09-10T01:02:44.730Z,24.04
2023-09-10T01:05:13.013Z,24.00
2023-09-10T01:07:40.574Z,23.97
2023-09-10T01:10:08.858Z,23.96
2023-09-10T01:12:53.718Z,23.94
2023-09-10T01:15:31.148Z,23.89
2023-09-10T01:18:13.286Z,23.87
2023-09-10T01:21:20.525Z,23.83
2023-09-10T01:24:25.031Z,23.79
2023-09-10T01:26:59.248Z,23.75
2023-09-10T01:29:26.885Z,23.72
2023-09-10T01:32:01.540Z,23.73
2023-09-10T01:34:43.113Z,23.70
2023-09-10T01:37:47.286Z,23.68
2023-09-10T01:40:22.043Z,23.66
2023-09-10T01:42:52.078Z,23.64
2023-09-10T01:45:20.110Z,23.62
2023-09-10T01:47:47.530Z,23.60
2023-09-10T01:50:15.454Z,23.59
2023-09-10T01:52:42.785Z,23.57
2023-09-10T01:55:10.108Z,23.56
2023-09-10T01:57:36.979Z,23.53
2023-09-10T02:00:06.774Z,23.50
2023-09-10T02:02:33.692Z,23.48
2023-09-10T02:05:00.787Z,23.46
2023-09-10T02:07:27.664Z,23.44
2023-09-10T02:09:54.569Z,23.42
2023-09-10T02:12:21.379Z,23.39
2023-09-10T02:14:49.855Z,23.38
2023-09-10T02:17:16.792Z,23.36
2023-09-10T02:19:43.794Z,23.33
2023-09-10T02:22:10.617Z,23.31
2023-09-10T02:24:37.422Z,23.31
2023-09-10T02:27:04.421Z,23.28
2023-09-10T02:29:31.254Z,23.27
2023-09-10T02:31:58.237Z,23.25
2023-09-10T02:34:25.140Z,23.24
2023-09-10T02:36:51.984Z,23.22
2023-09-10T02:39:18.788Z,23.18
2023-09-10T02:41:46.369Z,23.16
2023-09-10T02:44:13.221Z,23.15
2023-09-10T02:46:40.087Z,23.14
2023-09-10T02:49:06.947Z,23.12
2023-09-10T02:51:33.749Z,23.10
2023-09-10T02:54:00.603Z,23.09
2023-09-10T02:56:27.560Z,23.08
2023-09-10T02:58:54.445Z,23.05
2023-09-10T03:01:21.408Z,23.03
2023-09-10T03:03:50.220Z,23.02
2023-09-10T03:06:17.126Z,23.00
2023-09-10T03:08:45.734Z,22.98
2023-09-10T03:11:12.631Z,22.96
2023-09-10T03:13:39.494Z,22.95
2023-09-10T03:16:06.370Z,22.93
2023-09-10T03:18:33.270Z,22.91
2023-09-10T03:21:04.224Z,22.89
2023-09-10T03:23:31.097Z,22.86
2023-09-10T03:25:57.968Z,22.85
2023-09-10T03:28:24.839Z,22.83
2023-09-10T03:30:58.456Z,22.81
2023-09-10T03:33:25.432Z,22.78
2023-09-10T03:35:52.343Z,22.77
2023-09-10T03:38:19.204Z,22.75
2023-09-10T03:40:46.175Z,22.72
2023-09-10T03:43:13.064Z,22.70
2023-09-10T03:45:39.848Z,22.69
2023-09-10T03:48:07.234Z,22.68
2023-09-10T03:50:34.124Z,22.69
2023-09-10T03:53:00.971Z,22.67
2023-09-10T03:55:27.847Z,22.66
2023-09-10T03:57:54.743Z,22.64
2023-09-10T04:00:21.861Z,22.63
2023-09-10T04:02:48.906Z,22.63
2023-09-10T04:05:16.264Z,22.61
2023-09-10T04:07:43.193Z,22.60
2023-09-10T04:10:10.424Z,22.59
2023-09-10T04:12:38.152Z,22.58
2023-09-10T04:15:05.831Z,22.56
2023-09-10T04:17:32.855Z,22.54
2023-09-10T04:20:00.074Z,22.53
2023-09-10T04:22:27.469Z,22.52
2023-09-10T04:24:54.277Z,22.52
2023-09-10T04:27:21.118Z,22.50
2023-09-10T04:29:47.899Z,22.48
2023-09-10T04:32:14.769Z,22.46
2023-09-10T04:34:41.789Z,22.44
2023-09-10T04:37:08.682Z,22.43
2023-09-10T04:39:35.504Z,22.41
2023-09-10T04:42:04.053Z,22.40
2023-09-10T04:44:30.893Z,22.38
2023-09-10T04:46:57.720Z,22.36
2023-09-10T04:49:24.892Z,22.35
2023-09-10T04:51:51.697Z,22.33
2023-09-10T04:54:18.479Z,22.31
2023-09-10T04:56:47.098Z,22.29
2023-09-10T04:59:14.478Z,22.28
2023-09-10T05:01:41.339Z,22.29
2023-09-10T05:04:08.297Z,22.27
2023-09-10T05:06:36.004Z,22.26
2023-09-10T05:09:03.270Z,22.25
2023-09-10T05:11:30.098Z,22.24
2023-09-10T05:13:57.003Z,22.24
2023-09-10T05:16:23.924Z,22.25
2023-09-10T05:18:50.790Z,22.25
2023-09-10T05:21:17.675Z,22.27
2023-09-10T05:23:44.781Z,22.27
2023-09-10T05:26:11.645Z,22.27
2023-09-10T05:28:38.708Z,22.28
2023-09-10T05:31:06.503Z,22.30
2023-09-10T05:33:34.693Z,22.31
2023-09-10T05:36:01.993Z,22.33
2023-09-10T05:38:28.863Z,22.36
2023-09-10T05:41:02.208Z,22.39
2023-09-10T05:43:32.712Z,22.40
2023-09-10T05:45:59.718Z,22.43
2023-09-10T05:48:26.927Z,22.47
2023-09-10T05:50:59.931Z,22.52
2023-09-10T05:53:26.747Z,22.56
2023-09-10T05:55:53.636Z,22.60
2023-09-10T05:58:21.932Z,22.65
2023-09-10T06:00:52.162Z,22.71
2023-09-10T06:03:19.155Z,22.76
2023-09-10T06:05:46.182Z,22.81
2023-09-10T06:08:13.074Z,22.88
2023-09-10T06:10:39.902Z,22.94
2023-09-10T06:13:06.698Z,22.99
2023-09-10T06:15:33.555Z,23.04
2023-09-10T06:18:00.414Z,23.10
2023-09-10T06:20:27.413Z,23.15
2023-09-10T06:22:54.365Z,23.21
2023-09-10T06:25:21.280Z,23.28
2023-09-10T06:27:48.353Z,23.34
2023-09-10T06:30:15.208Z,23.39
2023-09-10T06:32:42.069Z,23.44
2023-09-10T06:35:09.288Z,23.50
2023-09-10T06:37:36.258Z,23.57
2023-09-10T06:40:03.964Z,23.61
2023-09-10T06:42:30.831Z,23.66
2023-09-10T06:44:57.624Z,23.72
2023-09-10T06:47:24.468Z,23.79
2023-09-10T06:49:51.342Z,23.87
2023-09-10T06:52:18.202Z,23.93
2023-09-10T06:54:45.062Z,23.98
2023-09-10T06:57:11.881Z,24.03
2023-09-10T06:59:38.671Z,24.07
2023-09-10T07:02:05.552Z,24.12
2023-09-10T07:04:32.620Z,24.16
2023-09-10T07:06:59.469Z,24.22
2023-09-10T07:09:26.295Z,24.26
2023-09-10T07:11:54.597Z,24.32
2023-09-10T07:14:22.900Z,24.38
2023-09-10T07:16:50.292Z,24.43
2023-09-10T07:19:17.561Z,24.48
2023-09-10T07:21:44.510Z,24.50
2023-09-10T07:24:11.642Z,24.56
2023-09-10T07:26:38.864Z,24.61
2023-09-10T07:29:10.104Z,24.62
2023-09-10T07:31:37.620Z,24.68
2023-09-10T07:34:05.616Z,24.71
2023-09-10T07:36:32.473Z,24.80
2023-09-10T07:38:59.415Z,24.92
2023-09-10T07:41:26.303Z,25.03
2023-09-10T07:43:53.154Z,25.18
2023-09-10T07:46:20.375Z,25.33
2023-09-10T07:48:47.197Z,25.40
2023-09-10T07:51:14.045Z,25.56
2023-09-10T07:53:40.904Z,25.69
2023-09-10T07:56:08.062Z,25.73
2023-09-10T07:58:35.030Z,25.73
2023-09-10T08:01:02.141Z,25.75
2023-09-10T08:03:29.183Z,25.80
2023-09-10T08:05:56.562Z,25.91
2023-09-10T08:08:23.495Z,25.96
2023-09-10T08:10:50.436Z,26.08
2023-09-10T08:13:17.442Z,26.10
2023-09-10T08:15:44.698Z,26.09
2023-09-10T08:18:13.469Z,26.11
2023-09-10T08:20:42.140Z,26.16
2023-09-10T08:23:09.823Z,26.17
2023-09-10T08:25:37.420Z,26.20
2023-09-10T08:28:04.746Z,26.22
2023-09-10T08:30:32.359Z,26.28
2023-09-10T08:32:59.342Z,26.36
2023-09-10T08:35:47.863Z,26.46
2023-09-10T08:38:14.896Z,26.52
2023-09-10T08:41:11.017Z,26.64
2023-09-10T08:43:51.589Z,26.73
2023-09-10T08:46:20.867Z,26.83
2023-09-10T08:48:48.034Z,26.90
2023-09-10T08:51:15.887Z,26.97
2023-09-10T08:53:44.368Z,27.03
2023-09-10T08:56:12.672Z,27.06
2023-09-10T08:58:41.992Z,27.10
2023-09-10T09:01:13.564Z,27.14
2023-09-10T09:03:40.485Z,27.21
2023-09-10T09:06:07.904Z,27.23
2023-09-10T09:08:37.370Z,27.27
2023-09-10T09:11:10.068Z,27.29
2023-09-10T09:13:45.449Z,27.35
2023-09-10T09:16:12.982Z,27.39
2023-09-10T09:18:41.676Z,27.46
2023-09-10T09:21:25.170Z,27.52
2023-09-10T09:24:02.965Z,27.59
2023-09-10T09:26:30.915Z,27.63
2023-09-10T09:28:58.525Z,27.66
2023-09-10T09:31:26.200Z,27.68
2023-09-10T09:33:54.115Z,27.71
2023-09-10T09:36:27.346Z,27.73
2023-09-10T09:38:55.569Z,27.77
2023-09-10T09:41:22.430Z,27.80
2023-09-10T09:43:49.294Z,27.86
2023-09-10T09:46:17.475Z,27.90
2023-09-10T09:48:45.625Z,27.95
2023-09-10T09:51:15.585Z,27.98
2023-09-10T09:53:44.439Z,28.00
2023-09-10T09:56:11.735Z,28.03
2023-09-10T09:58:38.853Z,28.05
2023-09-10T10:01:07.385Z,28.10
2023-09-10T10:03:34.816Z,28.15
2023-09-10T10:06:03.799Z,28.19
2023-09-10T10:08:32.729Z,28.24
2023-09-10T10:10:59.955Z,28.29
2023-09-10T10:13:28.443Z,28.34
2023-09-10T10:15:57.141Z,28.38
2023-09-10T10:18:26.071Z,28.43
2023-09-10T10:20:54.333Z,28.51
2023-09-10T10:23:26.683Z,28.55
2023-09-10T10:25:55.153Z,28.58
2023-09-10T10:28:22.902Z,28.62
2023-09-10T10:31:18.347Z,28.67
2023-09-10T10:34:06.533Z,28.70
2023-09-10T10:37:13.437Z,28.73
2023-09-10T10:40:12.159Z,28.76
2023-09-10T10:43:04.233Z,28.81
2023-09-10T10:45:33.573Z,28.83
2023-09-10T10:48:05.946Z,28.89
2023-09-10T10:50:36.445Z,28.94
2023-09-10T10:53:21.060Z,29.00
2023-09-10T10:55:52.754Z,28.99
2023-09-10T10:58:22.179Z,29.05
2023-09-10T11:00:51.337Z,29.09
2023-09-10T11:03:20.552Z,29.15
2023-09-10T11:05:53.918Z,29.21
2023-09-10T11:08:28.440Z,29.25
2023-09-10T11:10:56.069Z,29.29
2023-09-10T11:13:26.179Z,29.36
2023-09-10T11:16:05.567Z,29.42
2023-09-10T11:18:38.739Z,29.47
2023-09-10T11:21:16.999Z,29.52
2023-09-10T11:23:55.807Z,29.54
2023-09-10T11:26:22.590Z,29.57
2023-09-10T11:28:56.695Z,29.62
2023-09-10T11:31:43.017Z,29.67
2023-09-10T11:34:19.414Z,29.68
2023-09-10T11:36:52.092Z,29.72
2023-09-10T11:39:20.583Z,29.76
2023-09-10T11:41:55.545Z,29.79
2023-09-10T11:44:22.670Z,29.82
2023-09-10T11:46:52.786Z,29.88
2023-09-10T11:49:22.364Z,29.93
2023-09-10T11:51:51.742Z,29.94
2023-09-10T11:54:19.595Z,29.99
2023-09-10T11:56:57.415Z,30.05
2023-09-10T11:59:33.514Z,30.08
2023-09-10T12:02:00.996Z,30.10
2023-09-10T12:04:34.699Z,30.14
2023-09-10T12:07:02.700Z,30.16
2023-09-10T12:09:31.683Z,30.20
2023-09-10T12:12:12.202Z,30.23
2023-09-10T12:14:39.439Z,30.28
2023-09-10T12:17:06.497Z,30.32
2023-09-10T12:19:35.140Z,30.37
2023-09-10T12:22:04.422Z,30.40
2023-09-10T12:24:31.517Z,30.46
2023-09-10T12:26:59.601Z,30.50
2023-09-10T12:29:26.469Z,30.54
2023-09-10T12:31:57.822Z,30.59
2023-09-10T12:34:26.056Z,30.64
2023-09-10T12:36:53.539Z,30.65
2023-09-10T12:39:25.888Z,30.68
2023-09-10T12:42:02.478Z,30.72
2023-09-10T12:44:31.887Z,30.76
2023-09-10T12:47:00.209Z,30.79
2023-09-10T12:49:27.713Z,30.83
2023-09-10T12:51:54.547Z,30.89
2023-09-10T12:54:21.675Z,30.94
2023-09-10T12:56:52.744Z,30.99
2023-09-10T12:59:23.343Z,31.02
2023-09-10T13:01:51.171Z,31.04
2023-09-10T13:04:18.536Z,31.05
2023-09-10T13:06:45.876Z,31.07
2023-09-10T13:09:12.902Z,31.11
2023-09-10T13:11:41.099Z,31.16
2023-09-10T13:14:07.953Z,31.19
2023-09-10T13:16:34.805Z,31.25
2023-09-10T13:19:01.872Z,31.31
2023-09-10T13:21:28.749Z,31.36
2023-09-10T13:23:55.684Z,31.41
2023-09-10T13:26:22.645Z,31.45
2023-09-10T13:28:49.496Z,31.48
2023-09-10T13:31:16.578Z,31.51
2023-09-10T13:33:43.532Z,31.53
2023-09-10T13:36:11.699Z,31.55
2023-09-10T13:38:38.705Z,31.58
2023-09-10T13:41:05.717Z,31.62
2023-09-10T13:43:32.578Z,31.66
2023-09-10T13:45:59.490Z,31.68
2023-09-10T13:48:26.379Z,31.72
2023-09-10T13:50:53.232Z,31.74
2023-09-10T13:53:20.090Z,31.77
2023-09-10T13:55:47.155Z,31.81
2023-09-10T13:58:14.307Z,31.83
2023-09-10T14:00:42.234Z,31.86
2023-09-10T14:03:09.160Z,31.90
2023-09-10T14:05:36.068Z,31.92
2023-09-10T14:08:03.740Z,31.92
2023-09-10T14:10:30.676Z,31.94
2023-09-10T14:12:57.475Z,31.96
2023-09-10T14:15:24.303Z,31.97
2023-09-10T14:17:52.160Z,31.99
2023-09-10T14:20:19.090Z,32.01
2023-09-10T14:22:45.964Z,32.03
2023-09-10T14:25:16.473Z,32.05
2023-09-10T14:27:44.461Z,32.03
2023-09-10T14:30:14.061Z,32.05
2023-09-10T14:32:41.905Z,32.03
2023-09-10T14:35:09.155Z,32.02
2023-09-10T14:37:36.188Z,32.02
2023-09-10T14:40:05.585Z,32.03
2023-09-10T14:42:33.607Z,32.03
2023-09-10T14:45:00.723Z,32.02
2023-09-10T14:47:27.663Z,32.01
2023-09-10T14:49:54.636Z,32.02
2023-09-10T14:52:21.503Z,32.01
2023-09-10T14:54:48.320Z,31.99
2023-09-10T14:57:15.544Z,31.98
2023-09-10T14:59:42.380Z,31.97
2023-09-10T15:02:09.739Z,31.94
2023-09-10T15:04:36.580Z,31.94
2023-09-10T15:07:03.423Z,31.93
2023-09-10T15:09:30.464Z,31.92
2023-09-10T15:11:57.359Z,31.90
2023-09-10T15:14:24.253Z,31.89
2023-09-10T15:16:51.142Z,31.88
2023-09-10T15:19:18.282Z,31.87
2023-09-10T15:21:45.161Z,31.85
2023-09-10T15:24:11.983Z,31.85
2023-09-10T15:26:38.847Z,31.83
2023-09-10T15:29:05.809Z,31.83
2023-09-10T15:31:37.686Z,31.81
2023-09-10T15:34:05.455Z,31.80
2023-09-10T15:36:33.079Z,31.77
2023-09-10T15:39:00.094Z,31.75
2023-09-10T15:41:33.050Z,31.75
2023-09-10T15:44:04.521Z,31.75
2023-09-10T15:46:31.446Z,31.70
2023-09-10T15:49:00.358Z,31.71
2023-09-10T15:51:27.420Z,31.70
2023-09-10T15:53:54.279Z,31.69
2023-09-10T15:56:21.136Z,31.67
2023-09-10T15:58:48.015Z,31.67
2023-09-10T16:01:14.877Z,31.66
2023-09-10T16:03:42.244Z,31.62
2023-09-10T16:06:09.401Z,31.60
2023-09-10T16:08:36.552Z,31.58
2023-09-10T16:11:03.571Z,31.55
2023-09-10T16:13:30.377Z,31.53
2023-09-10T16:15:57.209Z,31.53
2023-09-10T16:18:24.007Z,31.52
2023-09-10T16:20:50.952Z,31.50
2023-09-10T16:23:18.567Z,31.49
2023-09-10T16:25:45.794Z,31.46
2023-09-10T16:28:12.666Z,31.46
2023-09-10T16:30:39.484Z,31.42
2023-09-10T16:33:06.492Z,31.40
2023-09-10T16:35:33.392Z,31.36
2023-09-10T16:38:00.344Z,31.32
2023-09-10T16:40:27.559Z,31.29
2023-09-10T16:42:54.379Z,31.27
2023-09-10T16:45:21.215Z,31.25
2023-09-10T16:47:48.105Z,31.22
2023-09-10T16:50:15.552Z,31.19
2023-09-10T16:52:42.411Z,31.18
2023-09-10T16:55:09.774Z,31.17
2023-09-10T16:57:37.238Z,31.15
2023-09-10T17:00:05.159Z,31.15
2023-09-10T17:02:32.183Z,31.10
2023-09-10T17:04:59.107Z,31.07
2023-09-10T17:07:25.924Z,31.03
2023-09-10T17:09:52.798Z,31.00
2023-09-10T17:12:19.605Z,30.98
2023-09-10T17:14:51.346Z,30.94
2023-09-10T17:17:18.289Z,30.90
2023-09-10T17:19:45.160Z,30.85
2023-09-10T17:22:11.982Z,30.82
2023-09-10T17:24:39.040Z,30.77
2023-09-10T17:27:06.200Z,30.71
2023-09-10T17:29:33.855Z,30.65
2023-09-10T17:32:00.996Z,30.57
2023-09-10T17:34:27.833Z,30.52
2023-09-10T17:36:54.733Z,30.44
2023-09-10T17:39:21.558Z,30.38
2023-09-10T17:41:48.408Z,30.31
2023-09-10T17:44:16.091Z,30.23
2023-09-10T17:46:43.082Z,30.17
2023-09-10T17:49:09.868Z,30.09
2023-09-10T17:51:36.696Z,30.01
2023-09-10T17:54:03.607Z,29.95
2023-09-10T17:56:30.556Z,29.88
2023-09-10T17:58:57.809Z,29.81
2023-09-10T18:01:26.167Z,29.74
2023-09-10T18:03:53.827Z,29.67
2023-09-10T18:06:20.741Z,29.60
2023-09-10T18:08:47.631Z,29.53
2023-09-10T18:11:15.112Z,29.47
2023-09-10T18:13:43.043Z,29.41
2023-09-10T18:16:10.360Z,29.34
2023-09-10T18:18:37.258Z,29.29
2023-09-10T18:21:04.261Z,29.22
2023-09-10T18:23:31.117Z,29.16
2023-09-10T18:25:58.022Z,29.11
2023-09-10T18:28:24.841Z,29.04
2023-09-10T18:30:53.423Z,28.98
2023-09-10T18:33:20.357Z,28.93
2023-09-10T18:35:49.363Z,28.87
2023-09-10T18:38:16.564Z,28.82
2023-09-10T18:40:44.916Z,28.78
2023-09-10T18:43:12.262Z,28.72
2023-09-10T18:45:39.160Z,28.68
2023-09-10T18:48:06.606Z,28.63
2023-09-10T18:50:33.571Z,28.58
2023-09-10T18:53:00.579Z,28.53
2023-09-10T18:55:27.541Z,28.48
2023-09-10T18:57:54.503Z,28.45
2023-09-10T19:00:21.481Z,28.39
2023-09-10T19:02:48.490Z,28.35
2023-09-10T19:05:15.577Z,28.31
2023-09-10T19:07:44.042Z,28.27
2023-09-10T19:10:11.023Z,28.22
2023-09-10T19:12:37.832Z,28.18
2023-09-10T19:15:05.009Z,28.15
2023-09-10T19:17:31.937Z,28.10
2023-09-10T19:19:58.863Z,28.05
2023-09-10T19:22:25.707Z,28.02
2023-09-10T19:24:52.664Z,27.99
2023-09-10T19:27:19.485Z,27.95
2023-09-10T19:29:46.294Z,27.92
2023-09-10T19:32:13.750Z,27.86
2023-09-10T19:34:40.613Z,27.83
2023-09-10T19:37:08.018Z,27.79
2023-09-10T19:39:34.821Z,27.75
2023-09-10T19:42:02.225Z,27.71
2023-09-10T19:44:29.164Z,27.66
2023-09-10T19:46:56.045Z,27.62
2023-09-10T19:49:24.079Z,27.58
2023-09-10T19:51:54.577Z,27.54
2023-09-10T19:54:21.496Z,27.51
2023-09-10T19:56:48.369Z,27.48
2023-09-10T19:59:15.393Z,27.43
2023-09-10T20:01:44.797Z,27.40
2023-09-10T20:04:12.815Z,27.36
2023-09-10T20:06:41.626Z,27.32
2023-09-10T20:09:08.808Z,27.30
2023-09-10T20:11:36.163Z,27.27
2023-09-10T20:14:03.936Z,27.25
2023-09-10T20:16:30.813Z,27.21
2023-09-10T20:18:57.656Z,27.18
2023-09-10T20:21:24.498Z,27.15
2023-09-10T20:23:51.493Z,27.10
2023-09-10T20:26:18.387Z,27.08
2023-09-10T20:28:45.355Z,27.04
2023-09-10T20:31:12.255Z,27.00
2023-09-10T20:33:39.642Z,26.98
2023-09-10T20:36:08.657Z,26.94
2023-09-10T20:38:36.155Z,26.90
2023-09-10T20:41:12.866Z,26.87
2023-09-10T20:43:41.228Z,26.84
2023-09-10T20:46:08.560Z,26.81
2023-09-10T20:48:35.547Z,26.78
2023-09-10T20:51:07.824Z,26.76
2023-09-10T20:53:36.961Z,26.72
2023-09-10T20:56:04.529Z,26.69
2023-09-10T20:58:31.744Z,26.67
2023-09-10T21:00:59.633Z,26.65
2023-09-10T21:03:29.558Z,26.62
2023-09-10T21:05:59.137Z,26.58
2023-09-10T21:08:26.867Z,26.55
2023-09-10T21:10:53.866Z,26.52
2023-09-10T21:13:20.674Z,26.49
2023-09-10T21:15:47.607Z,26.45
2023-09-10T21:18:15.880Z,26.43
2023-09-10T21:20:43.194Z,26.40
2023-09-10T21:23:10.252Z,26.37
2023-09-10T21:25:37.882Z,26.34
2023-09-10T21:28:07.864Z,26.30
2023-09-10T21:30:34.673Z,26.27
2023-09-10T21:33:01.841Z,26.23
2023-09-10T21:35:28.986Z,26.22
2023-09-10T21:37:55.788Z,26.19
2023-09-10T21:40:22.616Z,26.16
2023-09-10T21:42:49.460Z,26.15
2023-09-10T21:45:16.344Z,26.11
2023-09-10T21:47:43.271Z,26.09
2023-09-10T21:50:10.472Z,26.06
2023-09-10T21:52:37.615Z,26.02
2023-09-10T21:55:04.897Z,26.00
2023-09-10T21:57:31.830Z,25.96
2023-09-10T21:59:58.643Z,25.94
2023-09-10T22:02:25.610Z,25.92
2023-09-10T22:04:53.678Z,25.87
2023-09-10T22:07:20.501Z,25.84
2023-09-10T22:09:47.448Z,25.81
2023-09-10T22:12:14.368Z,25.79
2023-09-10T22:14:41.285Z,25.76
2023-09-10T22:17:08.136Z,25.73
2023-09-10T22:19:34.965Z,25.71
2023-09-10T22:22:01.914Z,25.67
2023-09-10T22:24:28.842Z,25.64
2023-09-10T22:26:55.649Z,25.61
2023-09-10T22:29:22.755Z,25.60
2023-09-10T22:31:49.751Z,25.57
2023-09-10T22:34:16.634Z,25.54
2023-09-10T22:36:43.503Z,25.51
2023-09-10T22:39:10.390Z,25.48
2023-09-10T22:41:37.285Z,25.45
2023-09-10T22:44:04.383Z,25.43
2023-09-10T22:46:31.390Z,25.40
2023-09-10T22:48:58.284Z,25.39
2023-09-10T22:51:25.132Z,25.37
2023-09-10T22:53:52.484Z,25.33
2023-09-10T22:56:21.328Z,25.30
2023-09-10T22:58:48.809Z,25.28
2023-09-10T23:01:17.806Z,25.24
2023-09-10T23:03:45.212Z,25.22
2023-09-10T23:06:12.453Z,25.19
2023-09-10T23:08:40.051Z,25.18
2023-09-10T23:11:07.620Z,25.14
2023-09-10T23:13:35.734Z,25.12
2023-09-10T23:16:04.070Z,25.09
2023-09-10T23:18:31.212Z,25.06
2023-09-10T23:20:58.151Z,25.05
2023-09-10T23:23:25.085Z,25.03
2023-09-10T23:25:52.108Z,25.00
2023-09-10T23:28:18.992Z,24.98
2023-09-10T23:30:45.787Z,24.94
2023-09-10T23:33:12.717Z,24.92
2023-09-10T23:35:39.910Z,24.89
2023-09-10T23:38:10.112Z,24.87
2023-09-10T23:40:38.584Z,24.82
2023-09-10T23:43:05.718Z,24.79
2023-09-10T23:45:32.748Z,24.77
2023-09-10T23:47:59.971Z,24.74
2023-09-10T23:50:27.005Z,24.72
2023-09-10T23:52:53.882Z,24.69
2023-09-10T23:55:20.728Z,24.66
2023-09-10T23:57:47.613Z,24.64
